Flight Track Log - Related Links

Times and Time Zones

All times are in EDT time to prevent confusion due to time zone crossing. See the SKW4540 flight status page for this flight to view local times or setup timezone preferences in your user account.

Time Position Orientation Groundspeed Altitude Reporting Facility
EDT Latitude Longitude Course Direction KTS MPH feet Rate Location/Type
Sun 01:56:28 PM 46.9986 -114.2361 312° West 230 265 7,600  Level Salt Lake Center
Sun 01:57:00 PM 46.6472 -113.9877 180° South  Level Estimated
Sun 01:57:30 PM 46.9989 -114.3269 270° West 244 281 10,000  Level Salt Lake Center
Sun 01:58:00 PM 46.5574 -113.9536 180° South  Level Estimated
Sun 01:58:32 PM 46.9269 -114.3483 191° South 272 313 11,700  Level Salt Lake Center
Sun 01:59:00 PM 46.4749 -114.0152 207° Southwest  Level FlightAware Approximate
Sun 01:59:34 PM 46.8442 -114.3358 174° South 280 322 13,700  Level Salt Lake Center
Sun 02:00:00 PM 46.3855 -113.9799 180° South  Level Estimated
Sun 02:00:36 PM 46.7614 -114.3253 175° South 299 344 15,400  Level Salt Lake Center
Sun 02:01:38 PM 46.6692 -114.3119 174° South 310 357 17,300 1,548 Climbing Salt Lake Center
Sun 02:02:40 PM 46.5839 -114.3006 175° South 310 357 18,600 1,355 Climbing Salt Lake Center
Sun 02:03:42 PM 46.4897 -114.2864 174° South 315 362 20,100 1,161 Climbing Salt Lake Center
Sun 02:04:44 PM 46.4047 -114.2756 175° South 328 377 21,000 726 Climbing Salt Lake Center
Sun 02:05:46 PM 46.3094 -114.2614 174° South 343 395 21,600 1,016 Climbing Salt Lake Center
Sun 02:06:48 PM 46.2153 -114.2481 174° South 342 394 23,100 1,161 Climbing Salt Lake Center
Sun 02:07:50 PM 46.1011 -114.2331 175° South 343 395 24,000 774 Climbing Salt Lake Center
Sun 02:08:52 PM 46.0008 -114.2189 174° South 357 411 24,700 726 Climbing Salt Lake Center
Sun 02:09:54 PM 45.8967 -114.2042 174° South 370 426 25,500 823 Climbing Salt Lake Center
Sun 02:10:56 PM 45.7928 -114.1906 175° South 375 432 26,400 774 Climbing Salt Lake Center
Sun 02:11:58 PM 45.6914 -114.1736 173° South 370 426 27,100 726 Climbing Salt Lake Center
Sun 02:13:00 PM 45.5675 -114.1589 175° South 379 436 27,900 629 Climbing Salt Lake Center
Sun 02:14:02 PM 45.4661 -114.1442 174° South 382 440 28,400 532 Climbing Salt Lake Center
Sun 02:15:04 PM 45.3453 -114.1283 175° South 389 448 29,000 532 Climbing Salt Lake Center
Sun 02:16:06 PM 45.2397 -114.1142 175° South 395 455 29,500 484 Climbing Salt Lake Center
Sun 02:17:08 PM 45.1178 -114.0961 174° South 396 456 30,000 484 Climbing Salt Lake Center
Sun 02:18:10 PM 45.0133 -114.0775 173° South 396 456 30,500 435 Climbing Salt Lake Center
Sun 02:19:12 PM 44.8958 -113.9994 155° Southeast 416 479 30,900 242 Climbing Salt Lake Center
Sun 02:20:14 PM 44.7964 -113.9294 153° Southeast 419 482 31,000 48 Climbing Salt Lake Center
Sun 02:21:16 PM 44.6972 -113.8608 154° Southeast 417 480 31,000  Level Salt Lake Center
Sun 02:22:18 PM 44.5800 -113.7792 154° Southeast 419 482 31,000  Level Salt Lake Center
Sun 02:23:20 PM 44.4764 -113.7119 155° Southeast 423 487 31,000  Level Salt Lake Center
Sun 02:24:23 PM 44.3578 -113.6311 154° Southeast 424 488 31,000  Level Salt Lake Center
Sun 02:25:25 PM 44.2572 -113.5636 154° Southeast 423 487 31,000  Level Salt Lake Center
Sun 02:26:27 PM 44.1414 -113.4847 154° Southeast 419 482 31,000  Level Salt Lake Center
Sun 02:27:29 PM 44.0378 -113.4153 154° Southeast 424 488 31,000  Level Salt Lake Center
Sun 02:28:31 PM 43.9197 -113.3361 154° Southeast 424 488 31,000  Level Salt Lake Center
Sun 02:29:33 PM 43.8186 -113.2692 154° Southeast 422 486 31,000  Level Salt Lake Center
Sun 02:30:35 PM 43.7008 -113.1917 155° Southeast 421 484 31,000  Level Salt Lake Center
Sun 02:31:37 PM 43.5997 -113.1261 155° Southeast 420 483 31,000  Level Salt Lake Center
Sun 02:32:39 PM 43.4844 -113.0486 154° Southeast 416 479 31,000  Level Salt Lake Center
Sun 02:33:41 PM 43.3831 -112.9825 155° Southeast 419 482 31,000  Level Salt Lake Center
Sun 02:34:43 PM 43.2669 -112.9078 155° Southeast 416 479 31,000  Level Salt Lake Center
Sun 02:35:45 PM 43.1678 -112.8439 155° Southeast 413 475 31,000  Level Salt Lake Center
Sun 02:36:47 PM 43.0514 -112.7683 155° Southeast 415 478 31,000 -49 Level Salt Lake Center
Sun 02:37:48 PM 42.9508 -112.7053 155° Southeast 416 479 30,900 -341 Descending Salt Lake Center
Sun 02:38:50 PM 42.8306 -112.6375 158° South 417 480 30,300 -435 Descending Salt Lake Center
Sun 02:39:52 PM 42.7239 -112.6075 168° South 411 473 30,000 -629 Descending Salt Lake Center
Sun 02:40:54 PM 42.6169 -112.5758 168° South 410 472 29,000 -1,016 Descending Salt Lake Center
Sun 02:41:56 PM 42.5086 -112.5408 167° South 404 465 27,900 -1,258 Descending Salt Lake Center
Sun 02:42:58 PM 42.3831 -112.5050 168° South 390 449 26,400 -1,355 Descending Salt Lake Center
Sun 02:44:00 PM 42.2803 -112.4708 166° South 382 440 25,100 -774 Descending Salt Lake Center
Sun 02:45:02 PM 42.1800 -112.4486 171° South 371 427 24,800 -629 Descending Salt Lake Center
Sun 02:46:04 PM 42.0831 -112.4533 182° South 353 406 23,800 -976 Descending Salt Lake Center
Sun 02:47:05 PM 41.9844 -112.4608 183° South 354 407 22,800 -1,073 Descending Salt Lake Center
Sun 02:48:07 PM 41.8853 -112.4658 182° South 357 411 21,600 -1,355 Descending Salt Lake Center
Sun 02:49:09 PM 41.7869 -112.4758 184° South 357 411 20,000 -1,732 Descending Salt Lake Center
Sun 02:49:44 PM 41.7211 -112.4708 177° South 344 396 18,800 -1,688 Descending Salt Lake Center
Sun 02:50:45 PM 41.6331 -112.4719 181° South 322 371 17,300 -1,547 Descending Salt Lake Center
Sun 02:51:52 PM 41.5450 -112.4042 150° Southeast 340 391 15,500 -1,537 Descending Salt Lake Center
Sun 02:52:46 PM 41.4669 -112.3447 150° Southeast 342 394 14,200 -1,286 Descending Salt Lake Center
Sun 02:53:16 PM 41.4336 -112.3219 153° Southeast 336 387 13,700 -1,174 Descending Salt Lake Center
Sun 02:54:18 PM 41.3558 -112.2581 148° Southeast 329 379 12,400 -1,306 Descending Salt Lake Center
Sun 02:55:43 PM 41.2428 -112.1636 148° Southeast 322 371 10,500 -1,210 Descending Salt Lake Center
Sun 02:56:22 PM 41.1892 -112.1225 150° Southeast 321 369 9,900 -713 Descending Salt Lake Center
Sun 02:57:24 PM 41.1281 -112.0722 148° Southeast 257 296 9,300 -585 Descending Salt Lake Center
Sun 02:58:25 PM 41.0714 -112.0258 148° Southeast 244 281 8,700 -585 Descending Salt Lake Center
Sun 02:59:27 PM 41.0125 -111.9994 161° South 231 266 8,100 -677 Descending Salt Lake Center
Sun 03:00:29 PM 40.9531 -111.9950 177° South 217 250 7,300 -1,113 Descending Salt Lake Center
Sun 03:01:31 PM 40.8867 -111.9867 175° South 204 235 5,800 -1,161 Descending Salt Lake Center
Sun 03:02:33 PM 40.8450 -111.9811 174° South 151 174 4,900 -774 Descending Salt Lake Center
Sun 03:03:35 PM 40.8047 -111.9764 175° South 146 168 4,200 -677 Descending Salt Lake Center

Login

Don't have an account? Register now (free) for customized features, flight alerts, and more!